Terminal Aerodrome Forecast
Issued by NWS

Home | Current Version | Previous Version | Text Only | Print | Product List | Glossary On
Versions: 1 2 3 4 5 6 7 8 9 10 11 12 13 14 15 16 17 18 19 20 21 22 23 24 25 26 27 28
000
FTUS46 KMTR 241720
TAFSJC
TAF
KSJC 241720Z 2418/2518 16005KT P6SM FEW035 FEW250
     FM242300 28009KT P6SM FEW030 SCT200
     FM250300 16006KT P6SM FEW025 BKN150
     FM250800 14011KT P6SM FEW020 SCT040 BKN100
     FM251300 13018G26KT P6SM FEW015 SCT035 BKN060
     FM251700 14016G24KT P6SM VCSH FEW012 SCT030 OVC050=

USA.gov is the U.S. government's official web portal to all federal, state and local government web resources and services.